METAR Data
IDs: Format: Raw Decoded Include TAF

Data at: 1749 UTC 03 Jul 2020

METAR for:KLHQ (Lancaster/Fairfield, OH, US)
Text:KLHQ 031653Z AUTO 34005KT 10SM FEW060 31/16 A3003 RMK AO2 SLP161 T03110156
Temperature: 31.1°C ( 88°F)
Dewpoint: 15.6°C ( 60°F) [RH = 39%]
Pressure (altimeter):30.03 inches Hg (1017.0 mb) [Sea level pressure: 1016.1 mb]
Winds:from the NNW (340 degrees) at 6 MPH (5 knots; 2.6 m/s)
Visibility:10 or more sm (16+ km)
Ceiling:at least 12,000 feet AGL
Clouds: few clouds at 6000 feet AGL
QC Flag:automated observation with no human augmentation